createdAt,value
2019-02-07T00:00:26.446Z,22.80
2019-02-07T00:02:58.248Z,22.00
2019-02-07T00:05:28.992Z,19.82
2019-02-07T00:08:03.376Z,21.82
2019-02-07T00:10:37.350Z,24.12
2019-02-07T00:13:09.552Z,21.33
2019-02-07T00:15:39.820Z,21.52
2019-02-07T00:18:10.258Z,19.65
2019-02-07T00:20:42.538Z,22.07
2019-02-07T00:23:12.876Z,23.83
2019-02-07T00:25:43.142Z,21.60
2019-02-07T00:28:13.368Z,19.10
2019-02-07T00:30:43.740Z,24.30
2019-02-07T00:33:13.968Z,23.27
2019-02-07T00:35:44.262Z,18.82
2019-02-07T00:38:14.642Z,18.77
2019-02-07T00:40:44.810Z,20.62
2019-02-07T00:43:15.014Z,21.35
2019-02-07T00:45:45.192Z,23.50
2019-02-07T00:48:15.359Z,23.52
2019-02-07T00:50:45.534Z,19.05
2019-02-07T00:53:15.729Z,21.35
2019-02-07T00:55:46.186Z,22.60
2019-02-07T00:58:16.362Z,20.48
2019-02-07T01:00:46.550Z,23.22
2019-02-07T01:03:16.746Z,20.97
2019-02-07T01:05:47.045Z,20.70
2019-02-07T01:08:17.304Z,23.05
2019-02-07T01:10:47.648Z,19.82
2019-02-07T01:13:17.892Z,19.85
2019-02-07T01:15:49.724Z,21.40
2019-02-07T01:18:20.299Z,22.55
2019-02-07T01:20:51.106Z,21.10
2019-02-07T01:23:21.870Z,17.60
2019-02-07T01:25:52.065Z,23.50
2019-02-07T01:28:22.348Z,24.02
2019-02-07T01:30:52.508Z,21.82
2019-02-07T01:33:22.914Z,26.62
2019-02-07T01:35:53.073Z,20.70
2019-02-07T01:38:23.214Z,19.67
2019-02-07T01:40:53.498Z,21.68
2019-02-07T01:43:23.618Z,24.02
2019-02-07T01:45:53.819Z,21.55
2019-02-07T01:48:25.806Z,18.92
2019-02-07T01:50:56.108Z,18.98
2019-02-07T01:53:26.462Z,21.33
2019-02-07T01:55:56.893Z,20.68
2019-02-07T01:58:28.057Z,22.82
2019-02-07T02:00:58.701Z,21.02
2019-02-07T02:03:28.833Z,20.32
2019-02-07T02:05:58.974Z,23.98
2019-02-07T02:08:29.270Z,23.75
2019-02-07T02:10:59.440Z,21.48
2019-02-07T02:13:30.335Z,23.38
2019-02-07T02:16:00.568Z,22.20
2019-02-07T02:18:30.865Z,19.35
2019-02-07T02:21:01.117Z,25.00
2019-02-07T02:23:31.421Z,22.85
2019-02-07T02:26:01.687Z,23.07
2019-02-07T02:28:31.989Z,21.00
2019-02-07T02:31:02.209Z,23.75
2019-02-07T02:33:32.377Z,23.47
2019-02-07T02:36:02.533Z,21.35
2019-02-07T02:38:32.714Z,21.87
2019-02-07T02:41:03.233Z,22.30
2019-02-07T02:43:33.450Z,23.32
2019-02-07T02:46:03.623Z,21.68
2019-02-07T02:48:34.919Z,23.00
2019-02-07T02:51:05.137Z,23.85
2019-02-07T02:53:35.297Z,23.73
2019-02-07T02:56:08.547Z,23.07
2019-02-07T02:58:38.923Z,22.20
2019-02-07T03:01:28.311Z,23.80
2019-02-07T03:04:13.925Z,21.55
2019-02-07T03:07:01.621Z,25.65
2019-02-07T03:09:53.511Z,22.10
2019-02-07T03:12:43.545Z,23.05
2019-02-07T03:15:30.925Z,27.62
2019-02-07T03:18:17.553Z,22.35
2019-02-07T03:21:12.476Z,22.70
2019-02-07T03:24:08.997Z,25.60
2019-02-07T03:27:01.108Z,25.80
2019-02-07T03:29:53.671Z,28.67
2019-02-07T03:32:45.605Z,26.07
2019-02-07T03:35:45.790Z,28.17
2019-02-07T03:38:34.240Z,25.43
2019-02-07T03:41:26.663Z,24.60
2019-02-07T03:44:10.251Z,24.02
2019-02-07T03:47:02.173Z,26.60
2019-02-07T03:49:49.519Z,25.45
2019-02-07T03:52:54.058Z,25.92
2019-02-07T03:55:32.955Z,25.72
2019-02-07T03:58:25.724Z,30.10
2019-02-07T04:01:27.013Z,24.77
2019-02-07T04:04:13.108Z,26.97
2019-02-07T04:07:02.435Z,26.12
2019-02-07T04:09:53.953Z,22.70
2019-02-07T04:12:46.181Z,25.60
2019-02-07T04:15:36.493Z,25.05
2019-02-07T04:18:26.167Z,26.27
2019-02-07T04:21:12.732Z,28.55
2019-02-07T04:24:11.580Z,26.55
2019-02-07T04:27:17.578Z,28.27
2019-02-07T04:30:14.345Z,29.37
2019-02-07T04:33:02.990Z,23.55
2019-02-07T04:35:47.889Z,24.63
2019-02-07T04:38:37.060Z,27.02
2019-02-07T04:41:23.985Z,27.02
2019-02-07T04:44:25.728Z,25.75
2019-02-07T04:47:13.210Z,25.77
2019-02-07T04:49:54.458Z,28.38
2019-02-07T04:52:47.979Z,25.60
2019-02-07T04:55:35.594Z,25.77
2019-02-07T04:58:28.727Z,26.60
2019-02-07T05:01:20.729Z,23.00
2019-02-07T05:04:19.133Z,25.80
2019-02-07T05:07:11.566Z,26.45
2019-02-07T05:10:06.540Z,25.72
2019-02-07T05:13:04.820Z,25.32
2019-02-07T05:15:55.500Z,28.00
2019-02-07T05:18:58.755Z,31.35
2019-02-07T05:21:46.615Z,27.73
2019-02-07T05:24:36.342Z,26.27
2019-02-07T05:27:21.535Z,30.95
2019-02-07T05:30:10.418Z,28.15
2019-02-07T05:33:02.674Z,28.02
2019-02-07T05:35:57.969Z,26.75
2019-02-07T05:38:47.806Z,30.17
2019-02-07T05:41:38.658Z,29.00
2019-02-07T05:44:36.669Z,27.58
2019-02-07T05:47:25.940Z,26.60
2019-02-07T05:50:16.801Z,31.27
2019-02-07T05:53:15.843Z,27.60
2019-02-07T05:56:03.808Z,28.35
2019-02-07T05:58:53.231Z,33.15
2019-02-07T06:01:46.991Z,25.45
2019-02-07T06:04:45.262Z,28.62
2019-02-07T06:07:41.876Z,30.10
2019-02-07T06:10:29.867Z,27.75
2019-02-07T06:13:27.915Z,26.12
2019-02-07T06:16:27.990Z,25.70
2019-02-07T06:19:17.079Z,26.90
2019-02-07T06:22:12.091Z,29.98
2019-02-07T06:25:20.726Z,28.30
2019-02-07T06:28:03.573Z,29.90
2019-02-07T06:30:51.571Z,25.95
2019-02-07T06:33:43.765Z,31.05
2019-02-07T06:36:45.016Z,29.55
2019-02-07T06:39:40.004Z,29.18
2019-02-07T06:42:27.815Z,28.92
2019-02-07T06:45:13.791Z,31.05
2019-02-07T06:47:52.546Z,27.35
2019-02-07T06:50:48.160Z,31.30
2019-02-07T06:53:36.039Z,32.60
2019-02-07T06:56:34.112Z,32.17
2019-02-07T06:59:21.614Z,32.10
2019-02-07T07:02:09.323Z,28.35
2019-02-07T07:04:50.954Z,28.83
2019-02-07T07:07:52.077Z,29.85
2019-02-07T07:10:43.984Z,29.10
2019-02-07T07:13:23.657Z,27.17
2019-02-07T07:16:07.368Z,26.85
2019-02-07T07:19:09.279Z,24.95
2019-02-07T07:21:51.327Z,33.95
2019-02-07T07:24:46.197Z,29.30
2019-02-07T07:27:33.777Z,30.75
2019-02-07T07:30:32.599Z,28.38
2019-02-07T07:33:33.920Z,29.35
2019-02-07T07:36:26.588Z,31.00
2019-02-07T07:39:25.072Z,28.52
2019-02-07T07:42:32.568Z,29.25
2019-02-07T07:45:24.592Z,31.37
2019-02-07T07:48:32.095Z,29.90
2019-02-07T07:51:21.345Z,28.30
2019-02-07T07:54:25.769Z,33.08
2019-02-07T07:57:13.622Z,30.85
2019-02-07T08:00:02.902Z,33.28
2019-02-07T08:02:42.258Z,33.85
2019-02-07T08:05:31.500Z,27.40
2019-02-07T08:08:24.638Z,28.17
2019-02-07T08:11:13.782Z,33.28
2019-02-07T08:14:01.414Z,30.40
2019-02-07T08:16:54.529Z,33.35
2019-02-07T08:20:02.116Z,29.70
2019-02-07T08:22:54.098Z,34.03
2019-02-07T08:25:42.241Z,30.40
2019-02-07T08:28:34.377Z,30.05
2019-02-07T08:31:29.994Z,28.07
2019-02-07T08:34:23.075Z,31.07
2019-02-07T08:37:06.277Z,36.85
2019-02-07T08:39:53.809Z,30.25
2019-02-07T08:42:46.373Z,36.48
2019-02-07T08:45:43.196Z,32.50
2019-02-07T08:48:36.275Z,32.45
2019-02-07T08:51:20.559Z,33.13
2019-02-07T08:54:08.975Z,36.77
2019-02-07T08:57:16.387Z,33.50
2019-02-07T09:00:08.676Z,37.10
2019-02-07T09:03:01.379Z,34.45
2019-02-07T09:05:49.283Z,34.95
2019-02-07T09:08:41.468Z,31.77
2019-02-07T09:11:38.145Z,35.70
2019-02-07T09:14:25.321Z,32.00
2019-02-07T09:17:20.361Z,34.38
2019-02-07T09:20:01.479Z,31.20
2019-02-07T09:22:50.647Z,33.55
2019-02-07T09:25:42.823Z,36.15
2019-02-07T09:28:30.669Z,32.13
2019-02-07T09:31:25.615Z,29.98
2019-02-07T09:34:23.637Z,31.15
2019-02-07T09:37:12.787Z,33.92
2019-02-07T09:39:49.224Z,30.05
2019-02-07T09:42:41.403Z,32.58
2019-02-07T09:45:42.663Z,36.55
2019-02-07T09:48:31.695Z,32.85
2019-02-07T09:51:23.667Z,33.60
2019-02-07T09:54:13.241Z,36.65
2019-02-07T09:56:51.117Z,29.77
2019-02-07T09:59:46.142Z,33.98
2019-02-07T10:02:47.417Z,30.30
2019-02-07T10:05:30.515Z,30.43
2019-02-07T10:08:18.129Z,34.73
2019-02-07T10:11:06.117Z,32.60
2019-02-07T10:14:14.397Z,31.50
2019-02-07T10:17:03.995Z,32.48
2019-02-07T10:20:08.032Z,34.60
2019-02-07T10:22:57.156Z,31.15
2019-02-07T10:25:40.485Z,28.45
2019-02-07T10:28:29.883Z,29.75
2019-02-07T10:31:21.734Z,27.82
2019-02-07T10:34:21.939Z,32.40
2019-02-07T10:37:23.154Z,26.93
2019-02-07T10:40:13.552Z,28.05
2019-02-07T10:43:03.053Z,24.40
2019-02-07T10:46:01.565Z,28.62
2019-02-07T10:48:49.357Z,34.67
2019-02-07T10:51:43.541Z,30.27
2019-02-07T10:54:30.817Z,27.60
2019-02-07T10:57:24.107Z,31.17
2019-02-07T11:00:22.761Z,29.35
2019-02-07T11:03:06.248Z,34.23
2019-02-07T11:05:49.089Z,25.50
2019-02-07T11:08:44.680Z,33.88
2019-02-07T11:11:32.287Z,27.67
2019-02-07T11:14:39.715Z,32.98
2019-02-07T11:17:30.430Z,31.15
2019-02-07T11:20:24.616Z,27.73
2019-02-07T11:23:22.805Z,33.38
2019-02-07T11:26:08.832Z,30.72
2019-02-07T11:29:09.796Z,29.90
2019-02-07T11:31:55.018Z,23.10
2019-02-07T11:34:56.366Z,35.52
2019-02-07T11:37:44.260Z,25.60
2019-02-07T11:40:51.844Z,25.62
2019-02-07T11:43:40.054Z,26.27
2019-02-07T11:46:37.583Z,30.45
2019-02-07T11:49:40.534Z,28.32
2019-02-07T11:52:35.648Z,29.42
2019-02-07T11:55:25.423Z,25.70
2019-02-07T11:58:18.986Z,27.32
2019-02-07T12:01:06.847Z,27.48
2019-02-07T12:04:02.074Z,24.43
2019-02-07T12:06:54.362Z,25.95
2019-02-07T12:09:46.090Z,31.62
2019-02-07T12:12:33.128Z,26.48
2019-02-07T12:15:34.821Z,25.80
2019-02-07T12:18:42.549Z,29.20
2019-02-07T12:21:34.540Z,23.62
2019-02-07T12:24:23.664Z,25.12
2019-02-07T12:27:24.890Z,28.15
2019-02-07T12:30:07.861Z,25.20
2019-02-07T12:33:14.891Z,23.02
2019-02-07T12:35:53.022Z,23.30
2019-02-07T12:38:35.332Z,23.83
2019-02-07T12:41:26.750Z,22.42
2019-02-07T12:44:16.398Z,24.35
2019-02-07T12:47:08.727Z,24.80
2019-02-07T12:50:10.546Z,21.37
2019-02-07T12:53:01.331Z,19.77
2019-02-07T12:55:56.395Z,20.50
2019-02-07T12:58:57.982Z,21.52
2019-02-07T13:01:40.317Z,20.12
2019-02-07T13:04:29.794Z,19.10
2019-02-07T13:07:08.925Z,19.05
2019-02-07T13:10:03.939Z,17.50
2019-02-07T13:13:05.013Z,13.95
2019-02-07T13:16:06.382Z,15.28
2019-02-07T13:19:04.169Z,15.90
2019-02-07T13:21:55.569Z,15.55
2019-02-07T13:24:44.791Z,16.42
2019-02-07T13:27:34.042Z,17.37
2019-02-07T13:30:35.502Z,18.45
2019-02-07T13:33:33.941Z,16.35
2019-02-07T13:36:22.814Z,14.95
2019-02-07T13:39:18.079Z,16.25
2019-02-07T13:42:07.105Z,9.95
2019-02-07T13:45:13.837Z,16.65
2019-02-07T13:48:09.909Z,12.88
2019-02-07T13:50:59.739Z,10.90
2019-02-07T13:53:55.009Z,13.88
2019-02-07T13:56:50.313Z,12.30
2019-02-07T14:00:17.718Z,9.58
2019-02-07T14:03:05.283Z,10.08
2019-02-07T14:05:54.681Z,12.82
2019-02-07T14:08:53.908Z,10.63
2019-02-07T14:11:37.523Z,9.73
2019-02-07T14:14:29.933Z,9.38
2019-02-07T14:17:11.435Z,10.50
2019-02-07T14:20:13.046Z,9.15
2019-02-07T14:23:14.394Z,10.28
2019-02-07T14:26:02.585Z,10.30
2019-02-07T14:28:54.633Z,9.63
2019-02-07T14:31:42.694Z,8.53
2019-02-07T14:34:39.521Z,10.15
2019-02-07T14:37:25.579Z,13.38
2019-02-07T14:40:20.694Z,8.80
2019-02-07T14:43:21.707Z,16.30
2019-02-07T14:46:23.983Z,12.00
2019-02-07T14:48:55.079Z,9.98
2019-02-07T14:51:25.463Z,12.55
2019-02-07T14:53:56.358Z,12.37
2019-02-07T14:56:26.785Z,15.88
2019-02-07T14:59:01.405Z,15.00
2019-02-07T15:01:31.754Z,14.65
2019-02-07T15:06:44.709Z,15.18
2019-02-07T15:09:17.245Z,13.32
2019-02-07T15:11:58.489Z,20.32
2019-02-07T15:14:32.560Z,14.65
2019-02-07T15:17:03.009Z,17.42
2019-02-07T15:19:34.838Z,11.75
2019-02-07T15:22:05.964Z,12.50
2019-02-07T15:24:36.637Z,15.50
2019-02-07T15:27:09.937Z,19.30
2019-02-07T15:29:50.722Z,17.27
2019-02-07T15:32:21.028Z,15.72
2019-02-07T15:34:53.851Z,16.87
2019-02-07T15:37:23.994Z,15.48
2019-02-07T15:39:54.934Z,14.25
2019-02-07T15:42:34.202Z,14.80
2019-02-07T15:45:11.320Z,18.07
2019-02-07T15:47:41.734Z,22.52
2019-02-07T15:50:18.448Z,21.42
2019-02-07T15:52:51.989Z,20.08
2019-02-07T15:55:21.230Z,20.72
2019-02-07T15:57:51.597Z,17.67
2019-02-07T16:00:46.159Z,18.57
2019-02-07T16:03:34.637Z,20.32
2019-02-07T16:06:36.658Z,13.60
2019-02-07T16:09:18.821Z,20.62
2019-02-07T16:11:55.130Z,17.70
2019-02-07T16:14:38.392Z,15.72
2019-02-07T16:17:08.056Z,18.27
2019-02-07T16:19:38.377Z,20.95
2019-02-07T16:22:24.811Z,23.80
2019-02-07T16:25:03.897Z,19.52
2019-02-07T16:27:34.441Z,23.50
2019-02-07T16:30:10.058Z,20.55
2019-02-07T16:32:40.420Z,20.97
2019-02-07T16:35:11.783Z,21.65
2019-02-07T16:37:42.536Z,18.25
2019-02-07T16:40:13.158Z,22.13
2019-02-07T16:42:46.768Z,17.65
2019-02-07T16:45:22.063Z,18.52
2019-02-07T16:47:51.347Z,25.20
2019-02-07T16:50:22.235Z,22.82
2019-02-07T16:52:52.521Z,27.58
2019-02-07T16:55:28.820Z,22.15
2019-02-07T16:58:00.896Z,23.40
2019-02-07T17:00:32.078Z,25.55
2019-02-07T17:03:10.226Z,22.27
2019-02-07T17:05:41.837Z,22.45
2019-02-07T17:08:15.106Z,25.02
2019-02-07T17:10:58.125Z,23.75
2019-02-07T17:13:32.520Z,17.17
2019-02-07T17:16:11.119Z,23.95
2019-02-07T17:18:47.253Z,23.52
2019-02-07T17:21:17.875Z,22.75
2019-02-07T17:23:49.693Z,21.05
2019-02-07T17:26:20.167Z,19.75
2019-02-07T17:28:50.423Z,26.87
2019-02-07T17:31:20.743Z,19.80
2019-02-07T17:33:51.061Z,24.55
2019-02-07T17:36:24.103Z,23.18
2019-02-07T17:39:07.972Z,21.93
2019-02-07T17:41:39.739Z,20.23
2019-02-07T17:44:10.015Z,18.15
2019-02-07T17:46:40.495Z,21.12
2019-02-07T17:49:12.069Z,20.90
2019-02-07T17:51:42.980Z,27.32
2019-02-07T17:54:18.948Z,20.92
2019-02-07T17:56:51.569Z,23.75
2019-02-07T17:59:24.165Z,22.15
2019-02-07T18:01:54.442Z,21.33
2019-02-07T18:04:24.729Z,26.05
2019-02-07T18:06:58.137Z,28.02
2019-02-07T18:09:31.993Z,29.42
2019-02-07T18:12:02.179Z,25.05
2019-02-07T18:14:37.534Z,20.10
2019-02-07T18:17:07.844Z,21.30
2019-02-07T18:19:41.480Z,26.25
2019-02-07T18:22:15.136Z,18.77
2019-02-07T18:24:50.542Z,20.82
2019-02-07T18:27:20.835Z,18.32
2019-02-07T18:29:51.012Z,19.55
2019-02-07T18:32:21.270Z,19.65
2019-02-07T18:34:57.795Z,17.48
2019-02-07T18:37:30.847Z,15.80
2019-02-07T18:40:08.353Z,15.72
2019-02-07T18:42:38.721Z,20.82
2019-02-07T18:45:10.002Z,19.05
2019-02-07T18:47:44.614Z,21.10
2019-02-07T18:50:24.784Z,14.87
2019-02-07T18:52:56.595Z,17.23
2019-02-07T18:55:28.431Z,14.80
2019-02-07T18:57:58.598Z,15.50
2019-02-07T19:00:30.946Z,17.35
2019-02-07T19:03:01.391Z,20.05
2019-02-07T19:05:34.766Z,20.95
2019-02-07T19:08:06.321Z,17.40
2019-02-07T19:10:40.204Z,18.12
2019-02-07T19:13:10.735Z,16.77
2019-02-07T19:15:44.777Z,13.58
2019-02-07T19:18:21.213Z,17.52
2019-02-07T19:20:52.013Z,12.95
2019-02-07T19:23:23.191Z,18.10
2019-02-07T19:25:53.818Z,12.63
2019-02-07T19:28:24.260Z,15.65
2019-02-07T19:30:54.726Z,20.90
2019-02-07T19:33:26.782Z,14.18
2019-02-07T19:36:02.307Z,12.80
2019-02-07T19:38:34.037Z,14.20
2019-02-07T19:41:04.558Z,11.30
2019-02-07T19:43:40.005Z,14.25
2019-02-07T19:46:10.416Z,16.45
2019-02-07T19:48:41.255Z,18.07
2019-02-07T19:51:11.583Z,12.37
2019-02-07T19:53:48.327Z,16.02
2019-02-07T19:56:21.953Z,14.85
2019-02-07T19:58:52.680Z,15.55
2019-02-07T20:01:23.196Z,16.50
2019-02-07T20:03:55.167Z,18.60
2019-02-07T20:06:26.703Z,19.73
2019-02-07T20:08:57.754Z,12.00
2019-02-07T20:11:28.899Z,15.08
2019-02-07T20:14:01.220Z,14.07
2019-02-07T20:16:31.476Z,14.45
2019-02-07T20:19:06.255Z,16.02
2019-02-07T20:21:39.277Z,14.85
2019-02-07T20:24:09.641Z,13.38
2019-02-07T20:26:44.017Z,14.35
2019-02-07T20:29:18.806Z,15.23
2019-02-07T20:31:49.653Z,11.53
2019-02-07T20:34:20.153Z,13.32
2019-02-07T20:36:50.821Z,14.78
2019-02-07T20:39:21.323Z,14.80
2019-02-07T20:41:52.589Z,16.70
2019-02-07T20:44:22.860Z,16.32
2019-02-07T20:46:54.729Z,23.30
2019-02-07T20:49:25.112Z,16.05
2019-02-07T20:51:55.450Z,14.95
2019-02-07T20:54:25.704Z,14.40
2019-02-07T20:56:56.549Z,20.68
2019-02-07T20:59:26.762Z,18.35
2019-02-07T21:01:57.373Z,16.17
2019-02-07T21:04:30.381Z,20.15
2019-02-07T21:07:01.090Z,12.63
2019-02-07T21:09:34.585Z,18.98
2019-02-07T21:12:05.268Z,15.58
2019-02-07T21:14:35.775Z,15.15
2019-02-07T21:17:06.080Z,16.27
2019-02-07T21:19:36.571Z,15.55
2019-02-07T21:22:06.914Z,14.50
2019-02-07T21:24:37.238Z,15.85
2019-02-07T21:27:07.515Z,12.75
2019-02-07T21:29:37.824Z,14.13
2019-02-07T21:32:08.063Z,11.35
2019-02-07T21:34:38.232Z,11.25
2019-02-07T21:37:11.848Z,17.10
2019-02-07T21:39:42.358Z,10.98
2019-02-07T21:42:12.791Z,12.18
2019-02-07T21:44:43.085Z,12.58
2019-02-07T21:47:14.106Z,10.78
2019-02-07T21:49:44.582Z,16.20
2019-02-07T21:52:15.699Z,9.95
2019-02-07T21:54:48.235Z,12.47
2019-02-07T21:57:19.580Z,10.78
2019-02-07T21:59:50.694Z,10.50
2019-02-07T22:02:21.006Z,17.45
2019-02-07T22:04:51.285Z,8.20
2019-02-07T22:07:21.863Z,13.98
2019-02-07T22:09:52.176Z,11.20
2019-02-07T22:12:22.323Z,9.30
2019-02-07T22:14:52.523Z,8.05
2019-02-07T22:17:22.697Z,10.45
2019-02-07T22:19:53.298Z,9.90
2019-02-07T22:22:24.081Z,16.50
2019-02-07T22:24:54.779Z,9.10
2019-02-07T22:27:25.195Z,11.90
2019-02-07T22:29:55.728Z,7.70
2019-02-07T22:32:26.032Z,8.20
2019-02-07T22:34:57.098Z,10.70
2019-02-07T22:37:27.612Z,12.93
2019-02-07T22:39:58.786Z,12.95
2019-02-07T22:42:29.438Z,13.58
2019-02-07T22:44:59.674Z,8.65
2019-02-07T22:47:48.342Z,6.75
2019-02-07T22:50:20.640Z,10.08
2019-02-07T22:52:56.805Z,9.38
2019-02-07T22:55:25.263Z,12.13
2019-02-07T22:57:55.595Z,7.85
2019-02-07T23:01:42.692Z,5.47
2019-02-07T23:04:13.350Z,9.88
2019-02-07T23:06:49.862Z,7.08
2019-02-07T23:09:20.238Z,8.33
2019-02-07T23:11:50.576Z,10.20
2019-02-07T23:14:43.562Z,2.60
2019-02-07T23:17:14.116Z,6.62
2019-02-07T23:19:44.560Z,8.15
2019-02-07T23:22:15.655Z,4.47
2019-02-07T23:24:49.965Z,4.05
2019-02-07T23:27:20.346Z,5.67
2019-02-07T23:29:51.054Z,3.87
2019-02-07T23:32:24.062Z,6.50
2019-02-07T23:34:55.982Z,2.35
2019-02-07T23:37:48.732Z,5.05
2019-02-07T23:40:27.600Z,4.95
2019-02-07T23:42:58.773Z,5.87
2019-02-07T23:45:29.126Z,6.60
2019-02-07T23:48:12.561Z,8.53
2019-02-07T23:50:39.427Z,7.53
2019-02-07T23:53:14.626Z,7.80
2019-02-07T23:55:50.665Z,7.58
2019-02-07T23:58:21.066Z,6.92
